Archival Weather

Snohomish County (Paine Fld)

Everett, Washington (KPAE)

Report from: Saturday, October 28, 2023 9:53 AM PDT
Current time: Friday, June 14, 2024 4:18 AM PDT

Current weather – Weather history – Daily summaries
Weather forecast

Temperature4.4°C (39.9°F)
Wind chill1.1°C (33.9°F)
Dew point-3.9°C (25.0°F)
Winds 8 kts (4.1 m/s, 9.2 mph) East (100°)
Visibility10 mi. (16.1 km)
Clouds Sky clear
Altimeter30.53 in.Hg (1034 mB)
Relative humidity55 %
Density altitude-1,918 ft. (-584 m)
Sea-level pressure103.4 kPa (1034 mB, 30.54 in.Hg)
Remarks Automated weather observing station with precipitation discriminator
Flight conditions Visual Meteorological Conditions
Raw dataKPAE 281653Z 10008KT 10SM CLR 04/M04 A3053 RMK AO2 SLP342 T00441039
An error has occurred. This application may no longer respond until reloaded. Reload 🗙